sensor_id;sensor_type;location;lat;lon;timestamp;P1;durP1;ratioP1;P2;durP2;ratioP2
9076;SDS011;4574;51.072;17.174;2024-02-26T00:00:04;0.40;;;0.40;;
9076;SDS011;4574;51.072;17.174;2024-02-26T00:02:36;0.30;;;0.30;;
9076;SDS011;4574;51.072;17.174;2024-02-26T00:05:05;0.30;;;0.30;;
9076;SDS011;4574;51.072;17.174;2024-02-26T00:07:35;0.40;;;0.40;;
9076;SDS011;4574;51.072;17.174;2024-02-26T00:10:05;0.40;;;0.40;;
9076;SDS011;4574;51.072;17.174;2024-02-26T00:12:35;0.40;;;0.40;;
9076;SDS011;4574;51.072;17.174;2024-02-26T00:15:06;0.30;;;0.30;;
9076;SDS011;4574;51.072;17.174;2024-02-26T00:17:35;0.40;;;0.40;;
9076;SDS011;4574;51.072;17.174;2024-02-26T00:20:04;0.30;;;0.30;;
9076;SDS011;4574;51.072;17.174;2024-02-26T00:22:35;0.40;;;0.40;;
9076;SDS011;4574;51.072;17.174;2024-02-26T00:25:04;0.30;;;0.30;;
9076;SDS011;4574;51.072;17.174;2024-02-26T00:27:33;0.40;;;0.40;;
9076;SDS011;4574;51.072;17.174;2024-02-26T00:30:04;0.40;;;0.40;;
9076;SDS011;4574;51.072;17.174;2024-02-26T00:32:33;0.30;;;0.30;;
9076;SDS011;4574;51.072;17.174;2024-02-26T00:35:02;0.40;;;0.40;;
9076;SDS011;4574;51.072;17.174;2024-02-26T00:37:31;0.40;;;0.40;;
9076;SDS011;4574;51.072;17.174;2024-02-26T00:39:59;0.40;;;0.40;;
9076;SDS011;4574;51.072;17.174;2024-02-26T00:42:28;0.40;;;0.40;;
9076;SDS011;4574;51.072;17.174;2024-02-26T00:44:57;0.40;;;0.40;;
9076;SDS011;4574;51.072;17.174;2024-02-26T00:47:27;0.40;;;0.40;;
9076;SDS011;4574;51.072;17.174;2024-02-26T00:49:55;0.30;;;0.30;;
9076;SDS011;4574;51.072;17.174;2024-02-26T00:52:24;0.40;;;0.40;;
9076;SDS011;4574;51.072;17.174;2024-02-26T00:54:52;0.33;;;0.33;;
9076;SDS011;4574;51.072;17.174;2024-02-26T00:57:21;0.30;;;0.30;;
9076;SDS011;4574;51.072;17.174;2024-02-26T00:59:50;0.40;;;0.40;;
9076;SDS011;4574;51.072;17.174;2024-02-26T01:02:18;0.40;;;0.40;;
9076;SDS011;4574;51.072;17.174;2024-02-26T01:04:48;0.40;;;0.40;;
9076;SDS011;4574;51.072;17.174;2024-02-26T01:07:17;0.40;;;0.40;;
9076;SDS011;4574;51.072;17.174;2024-02-26T01:09:46;0.40;;;0.40;;
9076;SDS011;4574;51.072;17.174;2024-02-26T01:12:14;0.37;;;0.37;;
9076;SDS011;4574;51.072;17.174;2024-02-26T01:14:43;0.40;;;0.40;;
9076;SDS011;4574;51.072;17.174;2024-02-26T01:17:12;0.40;;;0.40;;
9076;SDS011;4574;51.072;17.174;2024-02-26T01:19:40;0.40;;;0.40;;
9076;SDS011;4574;51.072;17.174;2024-02-26T01:22:11;0.40;;;0.40;;
9076;SDS011;4574;51.072;17.174;2024-02-26T01:24:40;0.40;;;0.40;;
9076;SDS011;4574;51.072;17.174;2024-02-26T01:27:08;0.40;;;0.40;;
9076;SDS011;4574;51.072;17.174;2024-02-26T01:29:37;0.40;;;0.40;;
9076;SDS011;4574;51.072;17.174;2024-02-26T01:32:06;0.40;;;0.40;;
9076;SDS011;4574;51.072;17.174;2024-02-26T01:34:34;0.40;;;0.40;;
9076;SDS011;4574;51.072;17.174;2024-02-26T01:37:04;0.40;;;0.40;;
9076;SDS011;4574;51.072;17.174;2024-02-26T01:39:34;0.40;;;0.40;;
9076;SDS011;4574;51.072;17.174;2024-02-26T01:42:02;0.30;;;0.30;;
9076;SDS011;4574;51.072;17.174;2024-02-26T01:44:31;0.40;;;0.40;;
9076;SDS011;4574;51.072;17.174;2024-02-26T01:47:00;0.40;;;0.40;;
9076;SDS011;4574;51.072;17.174;2024-02-26T01:49:29;0.40;;;0.40;;
9076;SDS011;4574;51.072;17.174;2024-02-26T01:51:58;0.40;;;0.40;;
9076;SDS011;4574;51.072;17.174;2024-02-26T01:54:27;0.37;;;0.37;;
9076;SDS011;4574;51.072;17.174;2024-02-26T01:56:58;0.40;;;0.40;;
9076;SDS011;4574;51.072;17.174;2024-02-26T01:59:27;0.40;;;0.40;;
9076;SDS011;4574;51.072;17.174;2024-02-26T02:01:57;0.40;;;0.40;;
9076;SDS011;4574;51.072;17.174;2024-02-26T02:04:26;0.40;;;0.40;;
9076;SDS011;4574;51.072;17.174;2024-02-26T02:06:57;0.50;;;0.50;;
9076;SDS011;4574;51.072;17.174;2024-02-26T02:09:28;0.40;;;0.40;;
9076;SDS011;4574;51.072;17.174;2024-02-26T02:11:57;0.40;;;0.40;;
9076;SDS011;4574;51.072;17.174;2024-02-26T02:14:28;0.40;;;0.40;;
9076;SDS011;4574;51.072;17.174;2024-02-26T02:16:57;0.40;;;0.40;;
9076;SDS011;4574;51.072;17.174;2024-02-26T02:19:25;0.40;;;0.40;;
9076;SDS011;4574;51.072;17.174;2024-02-26T02:21:55;0.33;;;0.33;;
9076;SDS011;4574;51.072;17.174;2024-02-26T02:24:24;0.40;;;0.40;;
9076;SDS011;4574;51.072;17.174;2024-02-26T02:26:52;0.40;;;0.40;;
9076;SDS011;4574;51.072;17.174;2024-02-26T02:29:21;0.40;;;0.40;;
9076;SDS011;4574;51.072;17.174;2024-02-26T02:31:50;0.40;;;0.40;;
9076;SDS011;4574;51.072;17.174;2024-02-26T02:34:19;0.50;;;0.50;;
9076;SDS011;4574;51.072;17.174;2024-02-26T02:36:49;0.40;;;0.40;;
9076;SDS011;4574;51.072;17.174;2024-02-26T02:39:21;0.40;;;0.40;;
9076;SDS011;4574;51.072;17.174;2024-02-26T02:41:50;0.47;;;0.47;;
9076;SDS011;4574;51.072;17.174;2024-02-26T02:44:19;0.40;;;0.40;;
9076;SDS011;4574;51.072;17.174;2024-02-26T02:46:47;0.40;;;0.40;;
9076;SDS011;4574;51.072;17.174;2024-02-26T02:49:17;0.40;;;0.40;;
9076;SDS011;4574;51.072;17.174;2024-02-26T02:51:46;0.40;;;0.40;;
9076;SDS011;4574;51.072;17.174;2024-02-26T02:54:14;0.40;;;0.40;;
9076;SDS011;4574;51.072;17.174;2024-02-26T02:56:44;0.40;;;0.40;;
9076;SDS011;4574;51.072;17.174;2024-02-26T02:59:13;0.40;;;0.40;;
9076;SDS011;4574;51.072;17.174;2024-02-26T03:01:41;0.40;;;0.40;;
9076;SDS011;4574;51.072;17.174;2024-02-26T03:04:10;0.40;;;0.40;;
9076;SDS011;4574;51.072;17.174;2024-02-26T03:06:39;0.40;;;0.40;;
9076;SDS011;4574;51.072;17.174;2024-02-26T03:09:07;0.40;;;0.40;;
9076;SDS011;4574;51.072;17.174;2024-02-26T03:11:36;0.40;;;0.40;;
9076;SDS011;4574;51.072;17.174;2024-02-26T03:14:07;0.50;;;0.50;;
9076;SDS011;4574;51.072;17.174;2024-02-26T03:16:36;0.40;;;0.40;;
9076;SDS011;4574;51.072;17.174;2024-02-26T03:19:05;0.40;;;0.40;;
9076;SDS011;4574;51.072;17.174;2024-02-26T03:21:33;0.40;;;0.40;;
9076;SDS011;4574;51.072;17.174;2024-02-26T03:24:02;0.40;;;0.40;;
9076;SDS011;4574;51.072;17.174;2024-02-26T03:26:31;0.40;;;0.40;;
9076;SDS011;4574;51.072;17.174;2024-02-26T03:29:00;0.50;;;0.50;;
9076;SDS011;4574;51.072;17.174;2024-02-26T03:31:31;0.40;;;0.40;;
9076;SDS011;4574;51.072;17.174;2024-02-26T03:33:59;0.40;;;0.40;;
9076;SDS011;4574;51.072;17.174;2024-02-26T03:36:28;0.47;;;0.47;;
9076;SDS011;4574;51.072;17.174;2024-02-26T03:38:57;0.40;;;0.40;;
9076;SDS011;4574;51.072;17.174;2024-02-26T03:41:25;0.40;;;0.40;;
9076;SDS011;4574;51.072;17.174;2024-02-26T03:43:54;0.40;;;0.40;;
9076;SDS011;4574;51.072;17.174;2024-02-26T03:46:23;0.40;;;0.40;;
9076;SDS011;4574;51.072;17.174;2024-02-26T03:48:53;0.30;;;0.30;;
9076;SDS011;4574;51.072;17.174;2024-02-26T03:51:22;0.40;;;0.40;;
9076;SDS011;4574;51.072;17.174;2024-02-26T03:53:50;0.40;;;0.40;;
9076;SDS011;4574;51.072;17.174;2024-02-26T03:56:19;0.40;;;0.40;;
9076;SDS011;4574;51.072;17.174;2024-02-26T03:58:49;0.40;;;0.40;;
9076;SDS011;4574;51.072;17.174;2024-02-26T04:01:17;0.40;;;0.40;;
9076;SDS011;4574;51.072;17.174;2024-02-26T04:03:46;0.40;;;0.40;;
9076;SDS011;4574;51.072;17.174;2024-02-26T04:06:16;0.40;;;0.40;;
9076;SDS011;4574;51.072;17.174;2024-02-26T04:08:47;0.40;;;0.40;;
9076;SDS011;4574;51.072;17.174;2024-02-26T04:11:16;0.43;;;0.43;;
9076;SDS011;4574;51.072;17.174;2024-02-26T04:13:45;0.40;;;0.40;;
9076;SDS011;4574;51.072;17.174;2024-02-26T04:16:16;0.40;;;0.40;;
9076;SDS011;4574;51.072;17.174;2024-02-26T04:18:45;0.40;;;0.40;;
9076;SDS011;4574;51.072;17.174;2024-02-26T04:21:15;0.40;;;0.40;;
9076;SDS011;4574;51.072;17.174;2024-02-26T04:23:44;0.50;;;0.50;;
9076;SDS011;4574;51.072;17.174;2024-02-26T04:26:13;0.43;;;0.43;;
9076;SDS011;4574;51.072;17.174;2024-02-26T04:28:41;0.40;;;0.40;;
9076;SDS011;4574;51.072;17.174;2024-02-26T04:31:10;0.47;;;0.47;;
9076;SDS011;4574;51.072;17.174;2024-02-26T04:33:38;0.40;;;0.40;;
9076;SDS011;4574;51.072;17.174;2024-02-26T04:36:12;0.40;;;0.40;;
9076;SDS011;4574;51.072;17.174;2024-02-26T04:38:43;0.40;;;0.40;;
9076;SDS011;4574;51.072;17.174;2024-02-26T04:41:12;0.50;;;0.50;;
9076;SDS011;4574;51.072;17.174;2024-02-26T04:43:41;0.47;;;0.47;;
9076;SDS011;4574;51.072;17.174;2024-02-26T04:46:09;0.43;;;0.43;;
9076;SDS011;4574;51.072;17.174;2024-02-26T04:48:38;0.40;;;0.40;;
9076;SDS011;4574;51.072;17.174;2024-02-26T04:51:08;0.40;;;0.40;;
9076;SDS011;4574;51.072;17.174;2024-02-26T04:53:37;0.40;;;0.40;;
9076;SDS011;4574;51.072;17.174;2024-02-26T04:56:07;0.40;;;0.40;;
9076;SDS011;4574;51.072;17.174;2024-02-26T04:58:36;0.40;;;0.40;;
9076;SDS011;4574;51.072;17.174;2024-02-26T05:01:04;0.40;;;0.40;;
9076;SDS011;4574;51.072;17.174;2024-02-26T05:03:34;0.43;;;0.43;;
9076;SDS011;4574;51.072;17.174;2024-02-26T05:06:03;0.40;;;0.40;;
9076;SDS011;4574;51.072;17.174;2024-02-26T05:08:32;0.50;;;0.50;;
9076;SDS011;4574;51.072;17.174;2024-02-26T05:11:02;0.40;;;0.40;;
9076;SDS011;4574;51.072;17.174;2024-02-26T05:13:33;0.40;;;0.40;;
9076;SDS011;4574;51.072;17.174;2024-02-26T05:16:01;0.40;;;0.40;;
9076;SDS011;4574;51.072;17.174;2024-02-26T05:18:30;0.40;;;0.40;;
9076;SDS011;4574;51.072;17.174;2024-02-26T05:20:59;0.50;;;0.50;;
9076;SDS011;4574;51.072;17.174;2024-02-26T05:23:27;0.40;;;0.40;;
9076;SDS011;4574;51.072;17.174;2024-02-26T05:25:56;0.43;;;0.43;;
9076;SDS011;4574;51.072;17.174;2024-02-26T05:28:25;0.50;;;0.50;;
9076;SDS011;4574;51.072;17.174;2024-02-26T05:30:55;0.40;;;0.40;;
9076;SDS011;4574;51.072;17.174;2024-02-26T05:33:24;0.40;;;0.40;;
9076;SDS011;4574;51.072;17.174;2024-02-26T05:35:53;0.50;;;0.50;;
9076;SDS011;4574;51.072;17.174;2024-02-26T05:38:21;0.40;;;0.40;;
9076;SDS011;4574;51.072;17.174;2024-02-26T05:40:50;0.40;;;0.40;;
9076;SDS011;4574;51.072;17.174;2024-02-26T05:43:19;0.50;;;0.50;;
9076;SDS011;4574;51.072;17.174;2024-02-26T05:45:47;0.50;;;0.50;;
9076;SDS011;4574;51.072;17.174;2024-02-26T05:48:17;0.40;;;0.40;;
9076;SDS011;4574;51.072;17.174;2024-02-26T05:50:47;0.40;;;0.40;;
9076;SDS011;4574;51.072;17.174;2024-02-26T05:53:16;0.40;;;0.40;;
9076;SDS011;4574;51.072;17.174;2024-02-26T05:55:45;0.40;;;0.40;;
9076;SDS011;4574;51.072;17.174;2024-02-26T05:58:14;0.50;;;0.50;;
9076;SDS011;4574;51.072;17.174;2024-02-26T06:00:42;0.50;;;0.50;;
9076;SDS011;4574;51.072;17.174;2024-02-26T06:03:11;0.40;;;0.40;;
9076;SDS011;4574;51.072;17.174;2024-02-26T06:05:41;0.40;;;0.40;;
9076;SDS011;4574;51.072;17.174;2024-02-26T06:08:10;0.50;;;0.50;;
9076;SDS011;4574;51.072;17.174;2024-02-26T06:10:39;0.40;;;0.40;;
9076;SDS011;4574;51.072;17.174;2024-02-26T06:13:08;0.40;;;0.40;;
9076;SDS011;4574;51.072;17.174;2024-02-26T06:15:36;0.40;;;0.40;;
9076;SDS011;4574;51.072;17.174;2024-02-26T06:18:05;0.47;;;0.47;;
9076;SDS011;4574;51.072;17.174;2024-02-26T06:20:34;0.40;;;0.40;;
9076;SDS011;4574;51.072;17.174;2024-02-26T06:23:04;0.40;;;0.40;;
9076;SDS011;4574;51.072;17.174;2024-02-26T06:25:33;0.40;;;0.40;;
9076;SDS011;4574;51.072;17.174;2024-02-26T06:28:02;0.40;;;0.40;;
9076;SDS011;4574;51.072;17.174;2024-02-26T06:30:31;0.40;;;0.40;;
9076;SDS011;4574;51.072;17.174;2024-02-26T06:33:00;0.40;;;0.40;;
9076;SDS011;4574;51.072;17.174;2024-02-26T06:35:29;0.50;;;0.50;;
9076;SDS011;4574;51.072;17.174;2024-02-26T06:37:57;0.40;;;0.40;;
9076;SDS011;4574;51.072;17.174;2024-02-26T06:40:27;0.40;;;0.40;;
9076;SDS011;4574;51.072;17.174;2024-02-26T06:42:56;0.40;;;0.40;;
9076;SDS011;4574;51.072;17.174;2024-02-26T06:45:24;0.40;;;0.40;;
9076;SDS011;4574;51.072;17.174;2024-02-26T06:47:53;0.40;;;0.40;;
9076;SDS011;4574;51.072;17.174;2024-02-26T06:50:22;0.47;;;0.47;;
9076;SDS011;4574;51.072;17.174;2024-02-26T06:52:51;0.40;;;0.40;;
9076;SDS011;4574;51.072;17.174;2024-02-26T06:55:19;0.40;;;0.40;;
9076;SDS011;4574;51.072;17.174;2024-02-26T06:57:49;0.40;;;0.40;;
9076;SDS011;4574;51.072;17.174;2024-02-26T07:00:18;0.40;;;0.40;;
9076;SDS011;4574;51.072;17.174;2024-02-26T07:02:47;0.40;;;0.40;;
9076;SDS011;4574;51.072;17.174;2024-02-26T07:05:15;0.40;;;0.40;;
9076;SDS011;4574;51.072;17.174;2024-02-26T07:07:44;0.50;;;0.50;;
9076;SDS011;4574;51.072;17.174;2024-02-26T07:10:12;0.40;;;0.40;;
9076;SDS011;4574;51.072;17.174;2024-02-26T07:12:41;0.40;;;0.40;;
9076;SDS011;4574;51.072;17.174;2024-02-26T07:15:11;0.40;;;0.40;;
9076;SDS011;4574;51.072;17.174;2024-02-26T07:17:40;0.40;;;0.40;;
9076;SDS011;4574;51.072;17.174;2024-02-26T07:20:14;0.40;;;0.40;;
9076;SDS011;4574;51.072;17.174;2024-02-26T07:22:43;0.40;;;0.40;;
9076;SDS011;4574;51.072;17.174;2024-02-26T07:25:11;0.40;;;0.40;;
9076;SDS011;4574;51.072;17.174;2024-02-26T07:27:40;0.40;;;0.40;;
9076;SDS011;4574;51.072;17.174;2024-02-26T07:30:11;0.40;;;0.40;;
9076;SDS011;4574;51.072;17.174;2024-02-26T07:32:40;0.40;;;0.40;;
9076;SDS011;4574;51.072;17.174;2024-02-26T07:35:09;0.40;;;0.40;;
9076;SDS011;4574;51.072;17.174;2024-02-26T07:37:37;0.40;;;0.40;;
9076;SDS011;4574;51.072;17.174;2024-02-26T07:40:06;0.40;;;0.40;;
9076;SDS011;4574;51.072;17.174;2024-02-26T07:42:36;0.40;;;0.40;;
9076;SDS011;4574;51.072;17.174;2024-02-26T07:45:06;0.40;;;0.40;;
9076;SDS011;4574;51.072;17.174;2024-02-26T07:47:36;0.40;;;0.40;;
9076;SDS011;4574;51.072;17.174;2024-02-26T07:50:07;0.40;;;0.40;;
9076;SDS011;4574;51.072;17.174;2024-02-26T07:52:37;0.40;;;0.40;;
9076;SDS011;4574;51.072;17.174;2024-02-26T07:55:06;0.40;;;0.40;;
9076;SDS011;4574;51.072;17.174;2024-02-26T07:57:36;0.40;;;0.40;;
9076;SDS011;4574;51.072;17.174;2024-02-26T08:00:05;0.40;;;0.40;;
9076;SDS011;4574;51.072;17.174;2024-02-26T08:02:37;0.40;;;0.40;;
9076;SDS011;4574;51.072;17.174;2024-02-26T08:05:06;0.30;;;0.30;;
9076;SDS011;4574;51.072;17.174;2024-02-26T08:07:35;0.40;;;0.40;;
9076;SDS011;4574;51.072;17.174;2024-02-26T08:10:06;0.40;;;0.40;;
9076;SDS011;4574;51.072;17.174;2024-02-26T08:12:35;0.40;;;0.40;;
9076;SDS011;4574;51.072;17.174;2024-02-26T08:15:04;0.40;;;0.40;;
9076;SDS011;4574;51.072;17.174;2024-02-26T08:17:33;0.37;;;0.37;;
9076;SDS011;4574;51.072;17.174;2024-02-26T08:20:04;0.30;;;0.30;;
9076;SDS011;4574;51.072;17.174;2024-02-26T08:22:33;0.30;;;0.30;;
9076;SDS011;4574;51.072;17.174;2024-02-26T08:25:02;0.30;;;0.30;;
9076;SDS011;4574;51.072;17.174;2024-02-26T08:27:33;0.30;;;0.30;;
9076;SDS011;4574;51.072;17.174;2024-02-26T08:30:02;0.30;;;0.30;;
9076;SDS011;4574;51.072;17.174;2024-02-26T08:32:30;0.30;;;0.30;;
9076;SDS011;4574;51.072;17.174;2024-02-26T08:34:59;0.30;;;0.30;;
9076;SDS011;4574;51.072;17.174;2024-02-26T08:37:29;0.30;;;0.30;;
9076;SDS011;4574;51.072;17.174;2024-02-26T08:39:58;0.30;;;0.30;;
9076;SDS011;4574;51.072;17.174;2024-02-26T08:42:31;0.30;;;0.30;;
9076;SDS011;4574;51.072;17.174;2024-02-26T08:45:00;0.30;;;0.30;;
9076;SDS011;4574;51.072;17.174;2024-02-26T08:47:30;0.30;;;0.30;;
9076;SDS011;4574;51.072;17.174;2024-02-26T08:49:59;0.33;;;0.33;;
9076;SDS011;4574;51.072;17.174;2024-02-26T08:52:27;0.30;;;0.30;;
9076;SDS011;4574;51.072;17.174;2024-02-26T08:54:57;0.30;;;0.30;;
9076;SDS011;4574;51.072;17.174;2024-02-26T08:57:26;0.30;;;0.30;;
9076;SDS011;4574;51.072;17.174;2024-02-26T08:59:54;0.30;;;0.30;;
9076;SDS011;4574;51.072;17.174;2024-02-26T09:02:23;0.30;;;0.30;;
9076;SDS011;4574;51.072;17.174;2024-02-26T09:04:51;0.30;;;0.30;;
9076;SDS011;4574;51.072;17.174;2024-02-26T09:07:21;0.30;;;0.30;;
9076;SDS011;4574;51.072;17.174;2024-02-26T09:09:51;0.30;;;0.30;;
9076;SDS011;4574;51.072;17.174;2024-02-26T09:12:20;0.40;;;0.40;;
9076;SDS011;4574;51.072;17.174;2024-02-26T09:14:49;0.30;;;0.30;;
9076;SDS011;4574;51.072;17.174;2024-02-26T09:17:17;0.30;;;0.30;;
9076;SDS011;4574;51.072;17.174;2024-02-26T09:19:46;0.30;;;0.30;;
9076;SDS011;4574;51.072;17.174;2024-02-26T09:22:14;0.30;;;0.30;;
9076;SDS011;4574;51.072;17.174;2024-02-26T09:24:44;0.30;;;0.30;;
9076;SDS011;4574;51.072;17.174;2024-02-26T09:27:14;0.30;;;0.30;;
9076;SDS011;4574;51.072;17.174;2024-02-26T09:29:44;0.30;;;0.30;;
9076;SDS011;4574;51.072;17.174;2024-02-26T09:32:13;0.30;;;0.30;;
9076;SDS011;4574;51.072;17.174;2024-02-26T09:34:41;0.30;;;0.30;;
9076;SDS011;4574;51.072;17.174;2024-02-26T09:37:10;0.30;;;0.30;;
9076;SDS011;4574;51.072;17.174;2024-02-26T09:39:47;0.20;;;0.20;;
9076;SDS011;4574;51.072;17.174;2024-02-26T09:42:18;0.30;;;0.30;;
9076;SDS011;4574;51.072;17.174;2024-02-26T09:44:47;0.40;;;0.40;;
9076;SDS011;4574;51.072;17.174;2024-02-26T09:47:20;0.30;;;0.30;;
9076;SDS011;4574;51.072;17.174;2024-02-26T09:49:51;0.30;;;0.30;;
9076;SDS011;4574;51.072;17.174;2024-02-26T09:52:21;0.20;;;0.20;;
9076;SDS011;4574;51.072;17.174;2024-02-26T09:54:51;0.30;;;0.30;;
9076;SDS011;4574;51.072;17.174;2024-02-26T09:57:21;0.30;;;0.30;;
9076;SDS011;4574;51.072;17.174;2024-02-26T09:59:53;0.30;;;0.30;;
9076;SDS011;4574;51.072;17.174;2024-02-26T10:02:21;0.20;;;0.20;;
9076;SDS011;4574;51.072;17.174;2024-02-26T10:04:51;0.30;;;0.30;;
9076;SDS011;4574;51.072;17.174;2024-02-26T10:07:23;0.30;;;0.30;;
9076;SDS011;4574;51.072;17.174;2024-02-26T10:09:51;0.30;;;0.30;;
9076;SDS011;4574;51.072;17.174;2024-02-26T10:12:21;0.30;;;0.30;;
9076;SDS011;4574;51.072;17.174;2024-02-26T10:14:52;0.20;;;0.20;;
9076;SDS011;4574;51.072;17.174;2024-02-26T10:17:21;0.30;;;0.30;;
9076;SDS011;4574;51.072;17.174;2024-02-26T10:19:50;0.30;;;0.30;;
9076;SDS011;4574;51.072;17.174;2024-02-26T10:22:23;0.20;;;0.20;;
9076;SDS011;4574;51.072;17.174;2024-02-26T10:24:53;0.20;;;0.20;;
9076;SDS011;4574;51.072;17.174;2024-02-26T10:27:24;0.30;;;0.30;;
9076;SDS011;4574;51.072;17.174;2024-02-26T10:29:52;0.20;;;0.20;;
9076;SDS011;4574;51.072;17.174;2024-02-26T10:32:24;0.30;;;0.30;;
9076;SDS011;4574;51.072;17.174;2024-02-26T10:34:55;0.20;;;0.20;;
9076;SDS011;4574;51.072;17.174;2024-02-26T10:37:24;0.30;;;0.30;;
9076;SDS011;4574;51.072;17.174;2024-02-26T10:39:56;0.23;;;0.23;;
9076;SDS011;4574;51.072;17.174;2024-02-26T10:42:26;0.20;;;0.20;;
9076;SDS011;4574;51.072;17.174;2024-02-26T10:44:55;0.20;;;0.20;;
9076;SDS011;4574;51.072;17.174;2024-02-26T10:47:25;0.20;;;0.20;;
9076;SDS011;4574;51.072;17.174;2024-02-26T10:49:54;0.20;;;0.20;;
9076;SDS011;4574;51.072;17.174;2024-02-26T10:52:24;0.20;;;0.20;;
9076;SDS011;4574;51.072;17.174;2024-02-26T10:54:56;0.30;;;0.30;;
9076;SDS011;4574;51.072;17.174;2024-02-26T10:57:33;0.20;;;0.20;;
9076;SDS011;4574;51.072;17.174;2024-02-26T11:00:08;0.30;;;0.30;;
9076;SDS011;4574;51.072;17.174;2024-02-26T11:02:42;0.30;;;0.30;;
9076;SDS011;4574;51.072;17.174;2024-02-26T11:05:13;0.20;;;0.20;;
9076;SDS011;4574;51.072;17.174;2024-02-26T11:07:43;0.20;;;0.20;;
9076;SDS011;4574;51.072;17.174;2024-02-26T11:10:13;0.20;;;0.20;;
9076;SDS011;4574;51.072;17.174;2024-02-26T11:12:46;0.20;;;0.20;;
9076;SDS011;4574;51.072;17.174;2024-02-26T11:15:15;0.20;;;0.20;;
9076;SDS011;4574;51.072;17.174;2024-02-26T11:17:46;0.30;;;0.30;;
9076;SDS011;4574;51.072;17.174;2024-02-26T11:20:16;0.20;;;0.20;;
9076;SDS011;4574;51.072;17.174;2024-02-26T11:22:47;0.20;;;0.20;;
9076;SDS011;4574;51.072;17.174;2024-02-26T11:25:16;0.20;;;0.20;;
9076;SDS011;4574;51.072;17.174;2024-02-26T11:27:47;0.20;;;0.20;;
9076;SDS011;4574;51.072;17.174;2024-02-26T11:30:19;0.30;;;0.30;;
9076;SDS011;4574;51.072;17.174;2024-02-26T11:32:50;0.20;;;0.20;;
9076;SDS011;4574;51.072;17.174;2024-02-26T11:35:19;0.20;;;0.20;;
9076;SDS011;4574;51.072;17.174;2024-02-26T11:37:52;0.20;;;0.20;;
9076;SDS011;4574;51.072;17.174;2024-02-26T11:40:23;0.20;;;0.20;;
9076;SDS011;4574;51.072;17.174;2024-02-26T11:42:54;0.20;;;0.20;;
9076;SDS011;4574;51.072;17.174;2024-02-26T11:48:22;0.20;;;0.20;;
9076;SDS011;4574;51.072;17.174;2024-02-26T11:50:53;0.20;;;0.20;;
9076;SDS011;4574;51.072;17.174;2024-02-26T11:53:23;0.30;;;0.30;;
9076;SDS011;4574;51.072;17.174;2024-02-26T11:58:56;0.20;;;0.20;;
9076;SDS011;4574;51.072;17.174;2024-02-26T12:01:44;0.30;;;0.30;;
9076;SDS011;4574;51.072;17.174;2024-02-26T12:04:18;0.20;;;0.20;;
9076;SDS011;4574;51.072;17.174;2024-02-26T12:06:50;0.30;;;0.30;;
9076;SDS011;4574;51.072;17.174;2024-02-26T12:09:32;0.20;;;0.20;;
9076;SDS011;4574;51.072;17.174;2024-02-26T12:12:03;0.20;;;0.20;;
9076;SDS011;4574;51.072;17.174;2024-02-26T12:14:36;0.20;;;0.20;;
9076;SDS011;4574;51.072;17.174;2024-02-26T12:17:06;0.20;;;0.20;;
9076;SDS011;4574;51.072;17.174;2024-02-26T12:19:35;0.20;;;0.20;;
9076;SDS011;4574;51.072;17.174;2024-02-26T12:22:09;0.20;;;0.20;;
9076;SDS011;4574;51.072;17.174;2024-02-26T12:24:42;0.20;;;0.20;;
9076;SDS011;4574;51.072;17.174;2024-02-26T12:27:10;0.20;;;0.20;;
9076;SDS011;4574;51.072;17.174;2024-02-26T12:29:41;0.20;;;0.20;;
9076;SDS011;4574;51.072;17.174;2024-02-26T12:32:09;0.20;;;0.20;;
9076;SDS011;4574;51.072;17.174;2024-02-26T12:34:38;0.20;;;0.20;;
9076;SDS011;4574;51.072;17.174;2024-02-26T12:37:07;0.20;;;0.20;;
9076;SDS011;4574;51.072;17.174;2024-02-26T12:39:37;0.20;;;0.20;;
9076;SDS011;4574;51.072;17.174;2024-02-26T12:42:06;0.20;;;0.20;;
9076;SDS011;4574;51.072;17.174;2024-02-26T12:44:35;0.20;;;0.20;;
9076;SDS011;4574;51.072;17.174;2024-02-26T12:47:05;0.20;;;0.20;;
9076;SDS011;4574;51.072;17.174;2024-02-26T12:49:33;0.20;;;0.20;;
9076;SDS011;4574;51.072;17.174;2024-02-26T12:52:02;0.20;;;0.20;;
9076;SDS011;4574;51.072;17.174;2024-02-26T12:54:31;0.20;;;0.20;;
9076;SDS011;4574;51.072;17.174;2024-02-26T12:57:01;0.20;;;0.20;;
9076;SDS011;4574;51.072;17.174;2024-02-26T12:59:33;0.20;;;0.20;;
9076;SDS011;4574;51.072;17.174;2024-02-26T13:02:04;0.30;;;0.30;;
9076;SDS011;4574;51.072;17.174;2024-02-26T13:04:34;0.20;;;0.20;;
9076;SDS011;4574;51.072;17.174;2024-02-26T13:07:03;0.30;;;0.30;;
9076;SDS011;4574;51.072;17.174;2024-02-26T13:09:33;0.20;;;0.20;;
9076;SDS011;4574;51.072;17.174;2024-02-26T13:12:03;0.20;;;0.20;;
9076;SDS011;4574;51.072;17.174;2024-02-26T13:14:33;0.27;;;0.27;;
9076;SDS011;4574;51.072;17.174;2024-02-26T13:17:01;0.20;;;0.20;;
9076;SDS011;4574;51.072;17.174;2024-02-26T13:19:32;0.20;;;0.20;;
9076;SDS011;4574;51.072;17.174;2024-02-26T13:22:04;0.30;;;0.30;;
9076;SDS011;4574;51.072;17.174;2024-02-26T13:24:34;0.30;;;0.30;;
9076;SDS011;4574;51.072;17.174;2024-02-26T13:27:03;0.20;;;0.20;;
9076;SDS011;4574;51.072;17.174;2024-02-26T13:29:33;0.20;;;0.20;;
9076;SDS011;4574;51.072;17.174;2024-02-26T13:32:02;0.20;;;0.20;;
9076;SDS011;4574;51.072;17.174;2024-02-26T13:34:35;0.20;;;0.20;;
9076;SDS011;4574;51.072;17.174;2024-02-26T13:37:04;0.20;;;0.20;;
9076;SDS011;4574;51.072;17.174;2024-02-26T13:39:33;0.20;;;0.20;;
9076;SDS011;4574;51.072;17.174;2024-02-26T13:42:06;0.20;;;0.20;;
9076;SDS011;4574;51.072;17.174;2024-02-26T13:44:38;0.20;;;0.20;;
9076;SDS011;4574;51.072;17.174;2024-02-26T13:47:07;0.20;;;0.20;;
9076;SDS011;4574;51.072;17.174;2024-02-26T13:49:37;0.20;;;0.20;;
9076;SDS011;4574;51.072;17.174;2024-02-26T13:52:06;0.20;;;0.20;;
9076;SDS011;4574;51.072;17.174;2024-02-26T13:54:35;0.20;;;0.20;;
9076;SDS011;4574;51.072;17.174;2024-02-26T13:57:05;0.20;;;0.20;;
9076;SDS011;4574;51.072;17.174;2024-02-26T13:59:33;0.20;;;0.20;;
9076;SDS011;4574;51.072;17.174;2024-02-26T14:02:02;0.20;;;0.20;;
9076;SDS011;4574;51.072;17.174;2024-02-26T14:04:31;0.23;;;0.23;;
9076;SDS011;4574;51.072;17.174;2024-02-26T14:07:01;0.20;;;0.20;;
9076;SDS011;4574;51.072;17.174;2024-02-26T14:09:30;0.20;;;0.20;;
9076;SDS011;4574;51.072;17.174;2024-02-26T14:12:14;0.20;;;0.20;;
9076;SDS011;4574;51.072;17.174;2024-02-26T14:14:48;0.20;;;0.20;;
9076;SDS011;4574;51.072;17.174;2024-02-26T14:17:17;0.20;;;0.20;;
9076;SDS011;4574;51.072;17.174;2024-02-26T14:19:45;0.20;;;0.20;;
9076;SDS011;4574;51.072;17.174;2024-02-26T14:22:16;0.20;;;0.20;;
9076;SDS011;4574;51.072;17.174;2024-02-26T14:24:45;0.20;;;0.20;;
9076;SDS011;4574;51.072;17.174;2024-02-26T14:27:13;0.30;;;0.30;;
9076;SDS011;4574;51.072;17.174;2024-02-26T14:29:42;0.20;;;0.20;;
9076;SDS011;4574;51.072;17.174;2024-02-26T14:32:11;0.20;;;0.20;;
9076;SDS011;4574;51.072;17.174;2024-02-26T14:34:40;0.20;;;0.20;;
9076;SDS011;4574;51.072;17.174;2024-02-26T14:37:09;0.20;;;0.20;;
9076;SDS011;4574;51.072;17.174;2024-02-26T14:39:39;0.20;;;0.20;;
9076;SDS011;4574;51.072;17.174;2024-02-26T14:42:07;0.27;;;0.27;;
9076;SDS011;4574;51.072;17.174;2024-02-26T14:44:36;0.20;;;0.20;;
9076;SDS011;4574;51.072;17.174;2024-02-26T14:47:05;0.20;;;0.20;;
9076;SDS011;4574;51.072;17.174;2024-02-26T14:49:33;0.23;;;0.23;;
9076;SDS011;4574;51.072;17.174;2024-02-26T14:52:02;0.20;;;0.20;;
9076;SDS011;4574;51.072;17.174;2024-02-26T14:54:31;0.20;;;0.20;;
9076;SDS011;4574;51.072;17.174;2024-02-26T14:57:05;0.20;;;0.20;;
9076;SDS011;4574;51.072;17.174;2024-02-26T14:59:34;0.20;;;0.20;;
9076;SDS011;4574;51.072;17.174;2024-02-26T15:02:03;0.20;;;0.20;;
9076;SDS011;4574;51.072;17.174;2024-02-26T15:04:33;0.30;;;0.30;;
9076;SDS011;4574;51.072;17.174;2024-02-26T15:07:02;0.20;;;0.20;;
9076;SDS011;4574;51.072;17.174;2024-02-26T15:09:31;0.20;;;0.20;;
9076;SDS011;4574;51.072;17.174;2024-02-26T15:12:02;0.20;;;0.20;;
9076;SDS011;4574;51.072;17.174;2024-02-26T15:14:34;0.23;;;0.23;;
9076;SDS011;4574;51.072;17.174;2024-02-26T15:17:03;0.20;;;0.20;;
9076;SDS011;4574;51.072;17.174;2024-02-26T15:19:37;0.20;;;0.20;;